createdAt,value
2022-11-20T00:01:28.988Z,4.70
2022-11-20T00:03:58.662Z,4.22
2022-11-20T00:06:26.804Z,5.45
2022-11-20T00:08:56.422Z,5.57
2022-11-20T00:11:24.761Z,4.15
2022-11-20T00:13:56.433Z,4.32
2022-11-20T00:16:25.805Z,6.70
2022-11-20T00:18:53.260Z,4.75
2022-11-20T00:21:22.495Z,5.32
2022-11-20T00:23:50.391Z,6.00
2022-11-20T00:26:20.416Z,5.13
2022-11-20T00:28:55.537Z,5.45
2022-11-20T00:31:22.883Z,5.28
2022-11-20T00:33:50.411Z,4.85
2022-11-20T00:36:22.684Z,5.57
2022-11-20T00:38:56.756Z,6.30
2022-11-20T00:43:52.337Z,4.90
2022-11-20T00:46:22.051Z,6.03
2022-11-20T00:48:49.674Z,5.75
2022-11-20T00:51:19.477Z,4.80
2022-11-20T00:53:46.938Z,5.85
2022-11-20T00:56:15.860Z,5.78
2022-11-20T00:58:45.213Z,5.50
2022-11-20T01:01:15.379Z,5.13
2022-11-20T01:03:44.868Z,4.90
2022-11-20T01:06:33.179Z,4.68
2022-11-20T01:09:02.741Z,6.20
2022-11-20T01:11:41.265Z,5.03
2022-11-20T01:14:11.835Z,4.63
2022-11-20T01:16:50.492Z,5.75
2022-11-20T01:19:20.749Z,4.55
2022-11-20T01:21:51.547Z,4.57
2022-11-20T01:24:20.495Z,5.05
2022-11-20T01:26:50.616Z,4.82
2022-11-20T01:29:21.084Z,4.35
2022-11-20T01:31:48.393Z,4.50
2022-11-20T01:34:18.615Z,4.22
2022-11-20T01:36:46.031Z,4.00
2022-11-20T01:39:27.066Z,6.07
2022-11-20T01:42:16.283Z,4.22
2022-11-20T01:44:58.958Z,3.42
2022-11-20T01:47:47.498Z,4.03
2022-11-20T01:50:34.188Z,3.75
2022-11-20T01:53:06.140Z,4.80
2022-11-20T01:55:37.837Z,4.88
2022-11-20T01:58:05.727Z,4.15
2022-11-20T02:00:32.772Z,3.85
2022-11-20T02:03:06.614Z,4.28
2022-11-20T02:06:06.193Z,3.85
2022-11-20T02:08:33.995Z,3.60
2022-11-20T02:11:00.916Z,4.00
2022-11-20T02:13:46.063Z,3.83
2022-11-20T02:16:17.560Z,3.95
2022-11-20T02:18:45.775Z,3.72
2022-11-20T02:21:37.592Z,4.00
2022-11-20T02:24:11.417Z,3.60
2022-11-20T02:27:01.607Z,4.13
2022-11-20T02:29:53.497Z,4.07
2022-11-20T02:32:26.735Z,4.30
2022-11-20T02:34:54.004Z,4.30
2022-11-20T02:37:22.520Z,4.22
2022-11-20T02:39:52.352Z,4.40
2022-11-20T02:42:19.799Z,4.18
2022-11-20T02:44:46.750Z,4.47
2022-11-20T02:47:13.714Z,4.57
2022-11-20T02:49:40.709Z,3.80
2022-11-20T02:52:07.657Z,5.43
2022-11-20T02:54:34.829Z,4.25
2022-11-20T02:57:01.720Z,5.00
2022-11-20T02:59:28.719Z,4.45
2022-11-20T03:01:55.569Z,5.05
2022-11-20T03:04:22.473Z,3.97
2022-11-20T03:25:38.228Z,4.22
2022-11-20T03:28:05.338Z,5.28
2022-11-20T03:30:32.214Z,3.80
2022-11-20T03:32:59.899Z,4.85
2022-11-20T03:35:27.119Z,4.97
2022-11-20T03:37:54.268Z,4.25
2022-11-20T03:40:21.297Z,4.57
2022-11-20T03:42:48.218Z,4.82
2022-11-20T03:45:19.320Z,4.07
2022-11-20T03:47:47.158Z,4.47
2022-11-20T03:50:15.368Z,3.97
2022-11-20T03:52:42.427Z,4.28
2022-11-20T03:55:09.664Z,4.63
2022-11-20T03:57:36.709Z,4.88
2022-11-20T04:00:05.254Z,4.28
2022-11-20T04:02:32.683Z,4.07
2022-11-20T04:04:59.517Z,4.68
2022-11-20T04:07:26.577Z,3.60
2022-11-20T04:09:53.724Z,3.80
2022-11-20T04:12:20.692Z,3.88
2022-11-20T04:14:47.528Z,4.72
2022-11-20T04:17:14.385Z,3.75
2022-11-20T04:19:41.313Z,3.92
2022-11-20T04:22:08.241Z,3.60
2022-11-20T04:24:35.180Z,3.55
2022-11-20T04:27:02.005Z,4.43
2022-11-20T04:29:28.867Z,3.17
2022-11-20T04:31:55.762Z,4.40
2022-11-20T04:34:22.634Z,3.60
2022-11-20T04:36:49.497Z,3.45
2022-11-20T04:39:16.528Z,3.40
2022-11-20T04:41:43.547Z,3.88
2022-11-20T04:44:10.615Z,3.78
2022-11-20T04:46:40.744Z,3.50
2022-11-20T04:49:08.661Z,3.88
2022-11-20T04:51:36.169Z,3.05
2022-11-20T04:54:03.077Z,2.75
2022-11-20T04:56:30.033Z,3.03
2022-11-20T04:58:59.417Z,2.83
2022-11-20T05:01:26.339Z,3.72
2022-11-20T05:03:53.495Z,2.90
2022-11-20T05:06:22.122Z,3.22
2022-11-20T05:08:49.333Z,3.45
2022-11-20T05:11:19.706Z,3.25
2022-11-20T05:13:46.676Z,3.58
2022-11-20T05:16:16.788Z,3.22
2022-11-20T05:18:44.463Z,3.53
2022-11-20T05:21:12.215Z,2.67
2022-11-20T05:23:39.819Z,3.75
2022-11-20T05:26:09.267Z,3.28
2022-11-20T05:28:36.146Z,2.50
2022-11-20T05:31:10.631Z,3.47
2022-11-20T05:33:40.367Z,3.00
2022-11-20T05:36:07.855Z,2.80
2022-11-20T05:38:34.814Z,2.95
2022-11-20T05:41:19.714Z,4.63
2022-11-20T05:43:48.049Z,3.03
2022-11-20T05:46:16.671Z,4.15
2022-11-20T05:48:45.010Z,2.70
2022-11-20T05:51:15.982Z,4.20
2022-11-20T05:53:48.117Z,2.50
2022-11-20T05:56:18.484Z,2.97
2022-11-20T05:58:46.565Z,2.97
2022-11-20T06:01:22.612Z,2.83
2022-11-20T06:03:51.740Z,3.08
2022-11-20T06:06:20.541Z,3.25
2022-11-20T06:08:48.080Z,3.00
2022-11-20T06:11:16.471Z,3.60
2022-11-20T06:13:43.968Z,2.90
2022-11-20T06:16:12.543Z,3.78
2022-11-20T06:18:39.914Z,3.50
2022-11-20T06:21:15.429Z,3.17
2022-11-20T06:23:42.965Z,2.72
2022-11-20T06:26:16.103Z,3.70
2022-11-20T06:28:43.192Z,2.67
2022-11-20T06:31:12.998Z,3.40
2022-11-20T06:33:40.260Z,3.00
2022-11-20T06:36:10.828Z,3.53
2022-11-20T06:38:38.764Z,3.45
2022-11-20T06:41:07.823Z,2.83
2022-11-20T06:43:34.691Z,2.80
2022-11-20T06:46:01.601Z,2.53
2022-11-20T06:48:29.731Z,2.75
2022-11-20T06:50:57.435Z,3.22
2022-11-20T06:53:25.196Z,3.78
2022-11-20T06:55:53.105Z,2.70
2022-11-20T06:58:20.039Z,2.97
2022-11-20T07:00:47.092Z,3.90
2022-11-20T07:03:14.303Z,2.92
2022-11-20T07:05:41.409Z,3.67
2022-11-20T07:08:09.174Z,3.67
2022-11-20T07:10:36.611Z,3.10
2022-11-20T07:13:03.538Z,2.95
2022-11-20T07:15:31.005Z,4.75
2022-11-20T07:18:00.880Z,3.47
2022-11-20T07:20:28.033Z,3.83
2022-11-20T07:22:56.793Z,3.53
2022-11-20T07:25:24.444Z,5.15
2022-11-20T07:27:51.273Z,3.33
2022-11-20T07:30:18.840Z,4.63
2022-11-20T07:32:51.831Z,3.20
2022-11-20T07:35:18.669Z,3.75
2022-11-20T07:37:46.785Z,3.28
2022-11-20T07:40:14.744Z,3.95
2022-11-20T07:42:51.826Z,4.05
2022-11-20T07:45:22.578Z,3.45
2022-11-20T07:47:49.474Z,3.85
2022-11-20T07:50:17.420Z,3.03
2022-11-20T07:52:44.361Z,3.30
2022-11-20T07:55:11.859Z,3.30
2022-11-20T07:57:39.196Z,4.13
2022-11-20T08:00:11.764Z,2.85
2022-11-20T08:02:42.397Z,3.10
2022-11-20T08:05:10.916Z,3.80
2022-11-20T08:07:43.542Z,3.83
2022-11-20T08:10:13.064Z,3.63
2022-11-20T08:13:09.855Z,3.92
2022-11-20T08:15:37.795Z,3.75
2022-11-20T08:18:30.004Z,2.60
2022-11-20T08:20:55.790Z,4.15
2022-11-20T08:23:24.065Z,3.75
2022-11-20T08:25:52.148Z,3.78
2022-11-20T08:28:21.610Z,2.88
2022-11-20T08:30:51.165Z,3.92
2022-11-20T08:33:19.210Z,4.32
2022-11-20T08:35:46.507Z,4.38
2022-11-20T08:38:13.421Z,4.00
2022-11-20T08:40:40.222Z,4.00
2022-11-20T08:43:07.045Z,3.20
2022-11-20T08:45:35.189Z,4.20
2022-11-20T08:48:04.076Z,3.40
2022-11-20T08:50:33.473Z,3.60
2022-11-20T08:53:06.776Z,3.42
2022-11-20T08:55:33.679Z,3.50
2022-11-20T08:58:05.313Z,2.95
2022-11-20T09:00:33.450Z,3.90
2022-11-20T09:03:02.183Z,4.55
2022-11-20T09:05:29.307Z,3.17
2022-11-20T09:07:59.970Z,3.65
2022-11-20T09:10:27.917Z,3.55
2022-11-20T09:12:56.106Z,3.58
2022-11-20T09:15:23.932Z,4.38
2022-11-20T09:17:59.388Z,3.40
2022-11-20T09:20:27.381Z,3.42
2022-11-20T09:22:54.587Z,3.60
2022-11-20T09:25:21.602Z,3.83
2022-11-20T09:27:48.878Z,3.40
2022-11-20T09:30:16.545Z,4.75
2022-11-20T09:32:44.260Z,3.75
2022-11-20T09:35:11.872Z,3.50
2022-11-20T09:37:39.143Z,3.20
2022-11-20T09:40:06.878Z,3.70
2022-11-20T09:42:38.521Z,3.20
2022-11-20T09:45:43.968Z,4.22
2022-11-20T09:48:30.475Z,3.67
2022-11-20T09:51:06.172Z,4.05
2022-11-20T09:53:39.037Z,3.75
2022-11-20T09:56:06.180Z,3.47
2022-11-20T09:58:50.170Z,3.55
2022-11-20T10:01:28.230Z,4.05
2022-11-20T10:04:03.920Z,3.75
2022-11-20T10:06:32.729Z,3.85
2022-11-20T10:09:24.799Z,3.40
2022-11-20T10:12:21.488Z,3.40
2022-11-20T10:14:48.176Z,3.30
2022-11-20T10:17:15.111Z,2.78
2022-11-20T10:19:44.929Z,3.05
2022-11-20T10:22:42.013Z,4.80
2022-11-20T10:25:19.272Z,4.32
2022-11-20T10:27:48.800Z,3.58
2022-11-20T10:30:18.940Z,3.08
2022-11-20T10:33:07.311Z,3.88
2022-11-20T10:36:00.958Z,4.15
2022-11-20T10:38:54.152Z,3.83
2022-11-20T10:41:37.231Z,5.15
2022-11-20T10:44:13.125Z,4.28
2022-11-20T10:46:47.051Z,5.85
2022-11-20T10:51:57.786Z,6.43
2022-11-20T10:54:52.446Z,6.10
2022-11-20T10:57:43.334Z,6.00
2022-11-20T11:00:14.818Z,6.97
2022-11-20T11:02:48.682Z,4.30
2022-11-20T11:07:52.328Z,4.00
2022-11-20T11:10:27.992Z,4.63
2022-11-20T11:12:55.336Z,7.00
2022-11-20T11:15:39.076Z,7.18
2022-11-20T11:18:06.364Z,5.65
2022-11-20T11:20:33.504Z,5.38
2022-11-20T11:23:01.351Z,4.95
2022-11-20T11:25:38.657Z,5.00
2022-11-20T11:28:27.217Z,6.80
2022-11-20T11:30:54.728Z,6.70
2022-11-20T11:33:32.752Z,4.90
2022-11-20T11:36:03.725Z,4.88
2022-11-20T11:38:34.014Z,6.55
2022-11-20T11:41:02.070Z,5.13
2022-11-20T11:43:56.665Z,5.95
2022-11-20T11:46:36.885Z,5.97
2022-11-20T11:49:09.745Z,5.95
2022-11-20T11:52:20.648Z,6.28
2022-11-20T11:54:58.182Z,5.43
2022-11-20T11:57:38.085Z,5.40
2022-11-20T12:00:13.234Z,4.75
2022-11-20T12:02:46.286Z,4.70
2022-11-20T12:05:21.364Z,4.57
2022-11-20T12:08:10.996Z,5.10
2022-11-20T12:10:59.438Z,5.07
2022-11-20T12:13:35.232Z,5.03
2022-11-20T12:16:04.076Z,4.93
2022-11-20T12:18:31.855Z,4.82
2022-11-20T12:21:07.489Z,4.15
2022-11-20T12:23:45.166Z,6.10
2022-11-20T12:26:39.112Z,5.55
2022-11-20T12:29:22.919Z,5.07
2022-11-20T12:32:05.573Z,5.00
2022-11-20T12:34:53.595Z,5.40
2022-11-20T12:37:38.814Z,5.32
2022-11-20T12:40:30.123Z,5.55
2022-11-20T12:43:34.546Z,5.53
2022-11-20T12:46:07.273Z,6.95
2022-11-20T12:49:05.309Z,4.05
2022-11-20T12:51:58.000Z,5.30
2022-11-20T12:55:09.315Z,4.60
2022-11-20T12:57:50.433Z,5.85
2022-11-20T13:00:22.293Z,5.68
2022-11-20T13:03:28.073Z,5.65
2022-11-20T13:06:16.744Z,5.38
2022-11-20T13:08:55.635Z,6.28
2022-11-20T13:11:44.158Z,4.40
2022-11-20T13:14:44.950Z,6.45
2022-11-20T13:17:25.799Z,5.45
2022-11-20T13:19:59.840Z,5.65
2022-11-20T13:22:45.751Z,5.70
2022-11-20T13:25:32.994Z,5.05
2022-11-20T13:28:10.067Z,5.15
2022-11-20T13:30:49.716Z,5.63
2022-11-20T13:33:28.705Z,6.15
2022-11-20T13:35:57.962Z,5.72
2022-11-20T13:38:25.575Z,5.90
2022-11-20T13:41:25.528Z,5.03
2022-11-20T13:43:53.424Z,6.28
2022-11-20T13:46:25.538Z,7.13
2022-11-20T13:48:55.315Z,6.15
2022-11-20T13:51:28.086Z,6.22
2022-11-20T13:54:23.335Z,6.07
2022-11-20T13:57:11.688Z,7.82
2022-11-20T13:59:47.367Z,6.13
2022-11-20T14:02:17.212Z,7.38
2022-11-20T14:04:47.985Z,6.47
2022-11-20T14:07:16.278Z,6.78
2022-11-20T14:09:52.964Z,7.72
2022-11-20T14:12:30.340Z,6.30
2022-11-20T14:14:57.205Z,8.25
2022-11-20T14:17:26.495Z,8.05
2022-11-20T14:19:54.275Z,6.93
2022-11-20T14:22:26.699Z,7.50
2022-11-20T14:25:18.114Z,7.45
2022-11-20T14:27:54.056Z,7.25
2022-11-20T14:30:24.903Z,7.25
2022-11-20T14:32:54.266Z,7.05
2022-11-20T14:35:29.268Z,7.43
2022-11-20T14:37:57.283Z,7.68
2022-11-20T14:40:37.074Z,7.43
2022-11-20T14:43:23.862Z,8.13
2022-11-20T14:46:00.477Z,7.88
2022-11-20T14:48:35.365Z,8.40
2022-11-20T14:51:02.357Z,8.00
2022-11-20T14:53:29.239Z,8.20
2022-11-20T14:55:59.251Z,7.18
2022-11-20T14:58:32.902Z,6.15
2022-11-20T15:01:08.242Z,7.00
2022-11-20T15:03:37.861Z,7.28
2022-11-20T15:06:06.268Z,5.70
2022-11-20T15:08:33.102Z,6.43
2022-11-20T15:11:00.086Z,7.28
2022-11-20T15:27:36.652Z,9.20
2022-11-20T15:30:12.902Z,8.60
2022-11-20T15:32:39.809Z,9.07
2022-11-20T15:35:07.175Z,7.57
2022-11-20T15:37:34.063Z,8.77
2022-11-20T15:40:00.879Z,8.88
2022-11-20T15:42:27.771Z,7.80
2022-11-20T15:44:54.571Z,9.02
2022-11-20T15:47:28.922Z,8.85
2022-11-20T15:49:55.825Z,7.80
2022-11-20T15:52:22.961Z,8.60
2022-11-20T15:54:49.794Z,8.77
2022-11-20T15:57:16.747Z,8.93
2022-11-20T15:59:43.586Z,10.05
2022-11-20T16:02:18.727Z,8.88
2022-11-20T16:04:45.904Z,9.90
2022-11-20T16:07:12.839Z,10.23
2022-11-20T16:09:39.725Z,10.50
2022-11-20T16:12:07.131Z,10.63
2022-11-20T16:14:52.580Z,10.73
2022-11-20T16:17:39.393Z,9.38
2022-11-20T16:20:06.741Z,10.20
2022-11-20T16:22:33.485Z,11.45
2022-11-20T16:25:00.322Z,11.55
2022-11-20T16:27:27.241Z,10.55
2022-11-20T16:29:54.062Z,11.63
2022-11-20T16:32:20.933Z,11.00
2022-11-20T16:34:47.741Z,10.57
2022-11-20T16:37:14.589Z,10.38
2022-11-20T16:39:41.397Z,12.30
2022-11-20T16:42:08.169Z,9.88
2022-11-20T16:44:35.624Z,9.88
2022-11-20T16:47:02.544Z,9.70
2022-11-20T16:49:29.331Z,8.80
2022-11-20T16:51:56.259Z,9.05
2022-11-20T16:54:23.508Z,9.43
2022-11-20T16:56:52.061Z,8.35
2022-11-20T16:59:19.328Z,8.63
2022-11-20T17:01:46.320Z,10.25
2022-11-20T17:04:13.310Z,10.55
2022-11-20T17:06:46.651Z,9.32
2022-11-20T17:09:14.163Z,9.45
2022-11-20T17:11:41.162Z,9.38
2022-11-20T17:14:08.391Z,10.55
2022-11-20T17:16:36.628Z,8.40
2022-11-20T17:19:05.331Z,9.20
2022-11-20T17:21:36.077Z,10.60
2022-11-20T17:24:05.437Z,10.45
2022-11-20T17:26:33.253Z,10.93
2022-11-20T17:29:05.951Z,10.45
2022-11-20T17:31:34.485Z,10.07
2022-11-20T17:34:02.367Z,8.18
2022-11-20T17:36:30.450Z,10.32
2022-11-20T17:38:57.970Z,8.65
2022-11-20T17:41:27.191Z,8.50
2022-11-20T17:43:55.660Z,8.40
2022-11-20T17:46:25.440Z,7.57
2022-11-20T17:48:52.704Z,8.45
2022-11-20T17:51:21.921Z,7.95
2022-11-20T17:53:51.413Z,7.72
2022-11-20T17:56:37.687Z,7.95
2022-11-20T17:59:09.103Z,6.78
2022-11-20T18:01:36.095Z,6.40
2022-11-20T18:04:03.842Z,5.40
2022-11-20T18:06:31.486Z,4.32
2022-11-20T18:09:04.277Z,4.15
2022-11-20T18:11:36.199Z,4.50
2022-11-20T18:14:24.561Z,4.03
2022-11-20T18:16:57.745Z,3.15
2022-11-20T18:19:32.233Z,3.47
2022-11-20T18:22:01.897Z,2.95
2022-11-20T18:24:29.024Z,3.10
2022-11-20T18:26:57.747Z,3.03
2022-11-20T18:29:25.642Z,3.55
2022-11-20T18:31:53.364Z,2.15
2022-11-20T18:34:20.504Z,3.47
2022-11-20T18:36:47.435Z,2.67
2022-11-20T18:39:14.956Z,2.72
2022-11-20T18:42:00.916Z,2.28
2022-11-20T18:44:52.064Z,2.17
2022-11-20T18:47:24.918Z,1.98
2022-11-20T18:49:54.602Z,2.08
2022-11-20T18:52:36.700Z,1.77
2022-11-20T18:55:05.197Z,1.80
2022-11-20T18:57:32.934Z,2.10
2022-11-20T19:00:04.829Z,1.65
2022-11-20T19:05:22.358Z,1.30
2022-11-20T19:07:49.224Z,1.08
2022-11-20T19:10:20.348Z,1.40
2022-11-20T19:12:47.374Z,1.45
2022-11-20T19:15:14.477Z,1.45
2022-11-20T19:17:41.406Z,1.58
2022-11-20T19:20:08.675Z,1.55
2022-11-20T19:22:35.565Z,0.08
2022-11-20T19:25:02.335Z,0.52
2022-11-20T19:27:29.480Z,0.03
2022-11-20T19:30:03.259Z,0.25
2022-11-20T19:32:30.517Z,0.55
2022-11-20T19:34:57.402Z,0.50
2022-11-20T19:37:25.330Z,0.32
2022-11-20T19:39:52.232Z,0.52
2022-11-20T19:42:19.080Z,0.10
2022-11-20T19:44:46.100Z,0.00
2022-11-20T19:47:14.720Z,0.47
2022-11-20T19:49:41.972Z,0.40
2022-11-20T19:52:08.846Z,0.30
2022-11-20T19:54:35.649Z,0.05
2022-11-20T19:57:03.089Z,1.38
2022-11-20T19:59:30.233Z,1.00
2022-11-20T20:01:57.224Z,0.30
2022-11-20T20:04:24.480Z,0.10
2022-11-20T20:06:51.447Z,1.98
2022-11-20T20:09:18.696Z,0.10
2022-11-20T20:11:46.982Z,0.43
2022-11-20T20:14:15.847Z,0.80
2022-11-20T20:16:47.800Z,0.20
2022-11-20T20:19:16.052Z,1.60
2022-11-20T20:21:44.112Z,0.00
2022-11-20T20:24:11.781Z,0.20
2022-11-20T20:26:38.674Z,0.32
2022-11-20T20:29:05.500Z,0.10
2022-11-20T20:31:33.854Z,0.43
2022-11-20T20:34:03.414Z,0.40
2022-11-20T20:36:30.362Z,0.20
2022-11-20T20:39:02.986Z,0.10
2022-11-20T20:41:30.940Z,0.82
2022-11-20T20:44:16.525Z,0.65
2022-11-20T20:46:43.932Z,0.20
2022-11-20T20:49:10.932Z,0.30
2022-11-20T20:51:37.843Z,0.77
2022-11-20T20:54:05.210Z,0.65
2022-11-20T20:56:32.327Z,0.63
2022-11-20T20:58:59.150Z,0.95
2022-11-20T21:01:28.922Z,1.75
2022-11-20T21:03:57.559Z,0.28
2022-11-20T21:06:25.594Z,1.58
2022-11-20T21:08:52.710Z,0.40
2022-11-20T21:11:21.152Z,0.47
2022-11-20T21:13:49.211Z,1.35
2022-11-20T21:16:18.593Z,0.35
2022-11-20T21:18:45.918Z,0.80
2022-11-20T21:21:33.337Z,1.15
2022-11-20T21:24:00.697Z,1.45
2022-11-20T21:26:27.597Z,0.75
2022-11-20T21:28:54.568Z,0.98
2022-11-20T21:31:23.603Z,0.88
2022-11-20T21:33:52.534Z,0.75
2022-11-20T21:36:24.837Z,1.20
2022-11-20T21:38:54.693Z,1.15
2022-11-20T21:41:22.357Z,1.45
2022-11-20T21:44:15.995Z,0.88
2022-11-20T21:46:41.036Z,0.75
2022-11-20T21:49:08.717Z,0.77
2022-11-20T21:51:36.155Z,0.30
2022-11-20T21:54:03.211Z,1.10
2022-11-20T21:56:30.092Z,0.82
2022-11-20T21:58:56.969Z,0.60
2022-11-20T22:01:26.487Z,1.27
2022-11-20T22:03:59.534Z,1.65
2022-11-20T22:06:30.360Z,0.32
2022-11-20T22:08:57.211Z,0.80
2022-11-20T22:11:24.109Z,0.70
2022-11-20T22:14:09.580Z,0.90
2022-11-20T22:16:37.713Z,1.48
2022-11-20T22:19:05.612Z,1.35
2022-11-20T22:21:33.319Z,1.20
2022-11-20T22:24:00.527Z,0.32
2022-11-20T22:26:29.682Z,1.20
2022-11-20T22:28:58.570Z,0.50
2022-11-20T22:31:28.027Z,1.48
2022-11-20T22:33:55.804Z,0.47
2022-11-20T22:36:25.106Z,0.98
2022-11-20T22:38:52.181Z,0.82
2022-11-20T22:41:27.412Z,1.35
2022-11-20T22:44:06.611Z,0.13
2022-11-20T22:46:35.355Z,0.57
2022-11-20T22:49:05.051Z,0.75
2022-11-20T22:51:34.283Z,0.55
2022-11-20T22:54:03.719Z,0.20
2022-11-20T22:56:32.377Z,0.10
2022-11-20T22:58:59.400Z,0.40
2022-11-20T23:01:34.825Z,1.00
2022-11-20T23:04:04.178Z,0.08
2022-11-20T23:06:34.458Z,0.68
2022-11-20T23:09:02.545Z,0.30
2022-11-20T23:11:31.166Z,0.32
2022-11-20T23:14:00.306Z,0.40
2022-11-20T23:16:29.284Z,0.80
2022-11-20T23:19:07.643Z,0.47
2022-11-20T23:21:36.980Z,0.32
2022-11-20T23:24:04.634Z,0.32
2022-11-20T23:26:35.225Z,0.55
2022-11-20T23:29:02.202Z,0.25
2022-11-20T23:31:31.172Z,0.30
2022-11-20T23:33:59.180Z,0.17
2022-11-20T23:36:26.280Z,0.03
2022-11-20T23:38:53.181Z,1.10
2022-11-20T23:41:19.996Z,1.80
2022-11-20T23:43:46.769Z,1.13
2022-11-20T23:46:16.487Z,0.70
2022-11-20T23:48:45.225Z,0.15
2022-11-20T23:51:13.341Z,0.32
2022-11-20T23:53:40.603Z,0.32
2022-11-20T23:56:08.115Z,0.17
2022-11-20T23:58:37.999Z,0.90
